createdAt,value
2023-05-24T00:01:08.672Z,101755.53
2023-05-24T00:03:39.384Z,101754.66
2023-05-24T00:06:07.110Z,101752.84
2023-05-24T00:08:34.586Z,101728.47
2023-05-24T00:11:01.646Z,101736.50
2023-05-24T00:13:28.585Z,101732.56
2023-05-24T00:15:55.556Z,101733.50
2023-05-24T00:18:22.569Z,101733.66
2023-05-24T00:20:49.622Z,101736.91
2023-05-24T00:23:16.626Z,101727.06
2023-05-24T00:25:43.552Z,101744.56
2023-05-24T00:28:10.521Z,101744.38
2023-05-24T00:30:37.447Z,101733.59
2023-05-24T00:33:04.524Z,101737.47
2023-05-24T00:35:31.638Z,101742.13
2023-05-24T00:37:58.717Z,101736.19
2023-05-24T00:40:25.692Z,101736.31
2023-05-24T00:42:52.690Z,101730.03
2023-05-24T00:45:19.765Z,101735.63
2023-05-24T00:47:47.755Z,101738.72
2023-05-24T00:50:17.088Z,101728.13
2023-05-24T00:52:44.163Z,101707.38
2023-05-24T00:55:12.362Z,101712.69
2023-05-24T00:57:39.591Z,101734.22
2023-05-24T01:00:08.115Z,101705.75
2023-05-24T01:02:35.332Z,101740.28
2023-05-24T01:05:03.130Z,101730.19
2023-05-24T01:07:48.608Z,101732.56
2023-05-24T01:10:46.168Z,101732.69
2023-05-24T01:13:28.166Z,101727.66
2023-05-24T01:16:24.316Z,101737.44
2023-05-24T01:18:57.103Z,101711.66
2023-05-24T01:21:56.271Z,101724.84
2023-05-24T01:24:44.432Z,101708.09
2023-05-24T01:27:16.081Z,101731.84
2023-05-24T01:29:43.136Z,101729.78
2023-05-24T01:32:10.594Z,101725.34
2023-05-24T01:34:39.713Z,101715.91
2023-05-24T01:37:06.753Z,101719.75
2023-05-24T01:39:33.724Z,101715.09
2023-05-24T01:42:34.519Z,101722.84
2023-05-24T01:45:33.591Z,101704.13
2023-05-24T01:48:28.676Z,101723.56
2023-05-24T01:51:00.940Z,101712.50
2023-05-24T01:53:34.722Z,101714.34
2023-05-24T01:56:05.366Z,101682.75
2023-05-24T01:58:33.665Z,101707.56
2023-05-24T02:01:01.577Z,101699.72
2023-05-24T02:03:28.926Z,101710.75
2023-05-24T02:05:55.907Z,101705.88
2023-05-24T02:08:22.968Z,101708.97
2023-05-24T02:10:50.114Z,101699.50
2023-05-24T02:13:19.722Z,101702.91
2023-05-24T02:15:47.736Z,101692.69
2023-05-24T02:18:14.938Z,101709.13
2023-05-24T02:20:42.564Z,101688.94
2023-05-24T02:23:09.745Z,101696.03
2023-05-24T02:25:37.415Z,101699.50
2023-05-24T02:28:04.760Z,101679.38
2023-05-24T02:30:31.733Z,101698.47
2023-05-24T02:32:58.761Z,101662.09
2023-05-24T02:35:25.944Z,101708.19
2023-05-24T02:37:53.072Z,101687.34
2023-05-24T02:40:20.054Z,101695.84
2023-05-24T02:42:46.965Z,101689.56
2023-05-24T02:45:13.955Z,101686.38
2023-05-24T02:47:41.009Z,101695.09
2023-05-24T02:50:08.446Z,101701.88
2023-05-24T02:52:36.289Z,101668.78
2023-05-24T02:55:03.986Z,101677.03
2023-05-24T02:57:34.177Z,101678.91
2023-05-24T03:00:01.545Z,101687.97
2023-05-24T03:02:29.978Z,101692.53
2023-05-24T03:04:57.328Z,101699.81
2023-05-24T03:07:24.297Z,101694.41
2023-05-24T03:09:51.364Z,101691.78
2023-05-24T03:12:18.327Z,101690.78
2023-05-24T03:14:45.306Z,101693.91
2023-05-24T03:17:12.256Z,101682.75
2023-05-24T03:19:39.271Z,101683.47
2023-05-24T03:22:06.229Z,101676.13
2023-05-24T03:24:33.536Z,101683.94
2023-05-24T03:27:01.085Z,101662.81
2023-05-24T03:29:28.117Z,101668.28
2023-05-24T03:31:55.564Z,101684.13
2023-05-24T03:34:22.709Z,101669.22
2023-05-24T03:36:49.939Z,101675.91
2023-05-24T03:39:17.505Z,101656.69
2023-05-24T03:42:03.376Z,101674.84
2023-05-24T03:44:31.575Z,101676.44
2023-05-24T03:46:59.715Z,101684.13
2023-05-24T03:49:26.626Z,101664.97
2023-05-24T03:51:53.748Z,101677.53
2023-05-24T03:54:20.682Z,101674.28
2023-05-24T03:56:48.009Z,101669.72
2023-05-24T03:59:14.977Z,101667.66
2023-05-24T04:01:42.072Z,101685.63
2023-05-24T04:04:09.146Z,101697.19
2023-05-24T04:06:38.077Z,101678.13
2023-05-24T04:09:05.928Z,101697.06
2023-05-24T04:11:32.977Z,101694.44
2023-05-24T04:14:00.638Z,101684.84
2023-05-24T04:16:28.500Z,101697.91
2023-05-24T04:18:57.338Z,101689.78
2023-05-24T04:21:24.439Z,101677.81
2023-05-24T04:23:52.951Z,101680.56
2023-05-24T04:26:21.230Z,101683.09
2023-05-24T04:28:48.669Z,101674.09
2023-05-24T04:31:16.441Z,101677.16
2023-05-24T04:33:43.699Z,101671.00
2023-05-24T04:36:12.035Z,101681.00
2023-05-24T04:38:40.910Z,101680.38
2023-05-24T04:41:08.095Z,101666.06
2023-05-24T04:43:35.427Z,101655.28
2023-05-24T04:46:03.109Z,101683.53
2023-05-24T04:48:30.222Z,101686.22
2023-05-24T04:50:58.468Z,101675.66
2023-05-24T04:53:25.826Z,101670.16
2023-05-24T04:55:53.300Z,101687.56
2023-05-24T04:58:20.295Z,101677.78
2023-05-24T05:00:47.355Z,101663.75
2023-05-24T05:03:14.558Z,101691.50
2023-05-24T05:05:41.625Z,101686.13
2023-05-24T05:08:08.544Z,101700.22
2023-05-24T05:10:36.267Z,101694.00
2023-05-24T05:13:03.390Z,101700.47
2023-05-24T05:15:30.692Z,101695.13
2023-05-24T05:17:57.728Z,101705.44
2023-05-24T05:20:25.216Z,101708.59
2023-05-24T05:22:52.310Z,101696.69
2023-05-24T05:25:19.305Z,101711.44
2023-05-24T05:27:46.317Z,101716.16
2023-05-24T05:30:13.697Z,101719.41
2023-05-24T05:32:40.765Z,101706.38
2023-05-24T05:35:08.543Z,101704.34
2023-05-24T05:37:35.494Z,101701.09
2023-05-24T05:40:03.895Z,101706.69
2023-05-24T05:42:30.840Z,101712.56
2023-05-24T05:44:57.893Z,101634.47
2023-05-24T05:47:24.849Z,101690.00
2023-05-24T05:49:51.804Z,101669.19
2023-05-24T05:52:18.873Z,101683.47
2023-05-24T05:54:45.868Z,101706.34
2023-05-24T05:57:12.940Z,101721.38
2023-05-24T05:59:39.938Z,101714.63
2023-05-24T06:02:07.133Z,101705.72
2023-05-24T06:04:34.518Z,101684.88
2023-05-24T06:07:02.143Z,101710.97
2023-05-24T06:09:29.177Z,101697.47
2023-05-24T06:11:56.101Z,101699.28
2023-05-24T06:14:25.159Z,101708.13
2023-05-24T06:16:54.406Z,101727.72
2023-05-24T06:19:21.764Z,101705.81
2023-05-24T06:21:50.606Z,101706.75
2023-05-24T06:24:22.216Z,101720.34
2023-05-24T06:26:51.431Z,101694.88
2023-05-24T06:29:22.539Z,101689.09
2023-05-24T06:31:50.625Z,101713.16
2023-05-24T06:34:21.055Z,101728.09
2023-05-24T06:36:48.532Z,101732.25
2023-05-24T06:39:16.149Z,101705.88
2023-05-24T06:41:44.526Z,101718.72
2023-05-24T06:44:11.417Z,101718.03
2023-05-24T06:46:38.946Z,101719.88
2023-05-24T06:49:05.975Z,101727.00
2023-05-24T06:51:33.855Z,101733.06
2023-05-24T06:54:01.024Z,101742.28
2023-05-24T06:56:29.137Z,101737.78
2023-05-24T06:58:56.832Z,101713.56
2023-05-24T07:01:23.908Z,101730.06
2023-05-24T07:03:50.934Z,101751.22
2023-05-24T07:06:18.432Z,101750.38
2023-05-24T07:08:45.451Z,101741.63
2023-05-24T07:11:12.652Z,101759.63
2023-05-24T07:13:39.680Z,101743.75
2023-05-24T07:16:07.087Z,101745.88
2023-05-24T07:18:34.113Z,101744.56
2023-05-24T07:21:01.265Z,101745.22
2023-05-24T07:23:28.416Z,101754.44
2023-05-24T07:25:55.349Z,101755.78
2023-05-24T07:28:22.520Z,101753.88
2023-05-24T07:30:49.645Z,101750.31
2023-05-24T07:33:17.047Z,101736.94
2023-05-24T07:35:45.898Z,101752.97
2023-05-24T07:38:12.993Z,101744.31
2023-05-24T07:40:40.005Z,101753.97
2023-05-24T07:43:07.077Z,101752.63
2023-05-24T07:45:34.113Z,101761.28
2023-05-24T07:48:01.802Z,101760.06
2023-05-24T07:50:32.151Z,101771.81
2023-05-24T07:52:59.257Z,101764.03
2023-05-24T07:55:28.012Z,101758.63
2023-05-24T07:57:55.128Z,101745.88
2023-05-24T08:00:23.141Z,101763.25
2023-05-24T08:02:50.354Z,101758.63
2023-05-24T08:05:17.743Z,101764.91
2023-05-24T08:07:45.692Z,101763.06
2023-05-24T08:10:13.728Z,101744.78
2023-05-24T08:12:41.462Z,101767.44
2023-05-24T08:15:09.013Z,101754.03
2023-05-24T08:17:36.096Z,101759.41
2023-05-24T08:20:08.925Z,101769.75
2023-05-24T08:22:37.340Z,101757.00
2023-05-24T08:25:04.765Z,101750.56
2023-05-24T08:27:31.824Z,101774.66
2023-05-24T08:29:59.123Z,101766.00
2023-05-24T08:32:26.737Z,101780.34
2023-05-24T08:34:58.158Z,101766.84
2023-05-24T08:37:31.927Z,101766.84
2023-05-24T08:39:59.217Z,101774.09
2023-05-24T08:42:28.656Z,101770.81
2023-05-24T08:45:13.769Z,101776.09
2023-05-24T08:47:42.321Z,101789.06
2023-05-24T08:50:10.090Z,101779.63
2023-05-24T08:52:37.300Z,101782.72
2023-05-24T08:55:05.431Z,101782.47
2023-05-24T08:57:34.805Z,101765.34
2023-05-24T09:00:02.226Z,101776.88
2023-05-24T09:02:31.351Z,101781.31
2023-05-24T09:04:59.764Z,101785.81
2023-05-24T09:07:27.685Z,101787.66
2023-05-24T09:10:09.236Z,101778.63
2023-05-24T09:12:39.267Z,101789.19
2023-05-24T09:15:08.528Z,101771.09
2023-05-24T09:17:38.006Z,101782.81
2023-05-24T09:20:10.223Z,101767.72
2023-05-24T09:22:40.987Z,101782.44
2023-05-24T09:25:11.398Z,101779.56
2023-05-24T09:27:38.952Z,101779.53
2023-05-24T09:30:10.888Z,101773.44
2023-05-24T09:32:38.264Z,101785.06
2023-05-24T09:35:09.726Z,101786.44
2023-05-24T09:37:38.833Z,101793.81
2023-05-24T09:40:08.929Z,101788.56
2023-05-24T09:42:35.901Z,101795.75
2023-05-24T09:45:09.070Z,101795.75
2023-05-24T09:47:38.641Z,101791.38
2023-05-24T09:50:12.945Z,101786.69
2023-05-24T09:52:41.135Z,101800.88
2023-05-24T09:55:16.447Z,101779.78
2023-05-24T09:58:05.763Z,101804.09
2023-05-24T10:00:41.244Z,101795.81
2023-05-24T10:03:12.023Z,101787.78
2023-05-24T10:05:44.831Z,101781.41
2023-05-24T10:08:12.581Z,101798.50
2023-05-24T10:10:39.616Z,101793.31
2023-05-24T10:13:07.622Z,101789.41
2023-05-24T10:15:34.536Z,101784.34
2023-05-24T10:18:02.612Z,101777.91
2023-05-24T10:20:30.084Z,101784.03
2023-05-24T10:23:01.964Z,101797.03
2023-05-24T10:25:29.977Z,101788.06
2023-05-24T10:28:08.819Z,101794.19
2023-05-24T10:31:09.244Z,101796.34
2023-05-24T10:33:37.608Z,101806.31
2023-05-24T10:36:09.664Z,101779.59
2023-05-24T10:38:41.690Z,101786.31
2023-05-24T10:41:09.364Z,101799.53
2023-05-24T10:43:37.838Z,101787.69
2023-05-24T10:46:08.774Z,101796.50
2023-05-24T10:48:41.090Z,101777.75
2023-05-24T10:51:33.632Z,101756.34
2023-05-24T10:54:19.767Z,101795.81
2023-05-24T10:56:51.278Z,101804.06
2023-05-24T10:59:37.877Z,101788.72
2023-05-24T11:02:16.318Z,101786.56
2023-05-24T11:04:46.944Z,101794.66
2023-05-24T11:07:15.753Z,101785.09
2023-05-24T11:09:46.622Z,101787.97
2023-05-24T11:12:18.769Z,101781.88
2023-05-24T11:14:52.036Z,101797.53
2023-05-24T11:17:23.627Z,101793.59
2023-05-24T11:19:55.138Z,101777.81
2023-05-24T11:22:25.183Z,101782.31
2023-05-24T11:24:53.400Z,101790.66
2023-05-24T11:27:20.532Z,101799.09
2023-05-24T11:29:48.605Z,101794.00
2023-05-24T11:32:20.975Z,101791.09
2023-05-24T11:34:48.893Z,101789.13
2023-05-24T11:37:18.083Z,101769.06
2023-05-24T11:39:50.045Z,101772.06
2023-05-24T11:42:17.489Z,101784.06
2023-05-24T11:44:44.559Z,101782.59
2023-05-24T11:47:16.518Z,101773.00
2023-05-24T11:49:43.469Z,101782.41
2023-05-24T11:52:10.591Z,101790.09
2023-05-24T11:54:38.849Z,101775.16
2023-05-24T11:57:06.186Z,101794.84
2023-05-24T11:59:35.732Z,101784.56
2023-05-24T12:02:06.507Z,101798.13
2023-05-24T12:04:34.801Z,101779.16
2023-05-24T12:07:02.966Z,101768.78
2023-05-24T12:09:30.201Z,101784.22
2023-05-24T12:11:58.412Z,101790.34
2023-05-24T12:14:32.886Z,101794.47
2023-05-24T12:17:03.467Z,101789.72
2023-05-24T12:19:36.480Z,101793.97
2023-05-24T12:22:08.192Z,101799.00
2023-05-24T12:24:37.137Z,101808.84
2023-05-24T12:27:09.074Z,101794.56
2023-05-24T12:29:39.811Z,101806.94
2023-05-24T12:32:15.419Z,101810.69
2023-05-24T12:34:44.168Z,101802.00
2023-05-24T12:37:13.171Z,101794.91
2023-05-24T12:39:43.005Z,101809.19
2023-05-24T12:42:13.228Z,101799.50
2023-05-24T12:44:40.715Z,101804.47
2023-05-24T12:47:08.938Z,101810.50
2023-05-24T12:49:36.178Z,101812.59
2023-05-24T12:52:03.218Z,101810.34
2023-05-24T12:54:30.397Z,101813.06
2023-05-24T12:57:00.018Z,101810.09
2023-05-24T12:59:28.595Z,101807.81
2023-05-24T13:01:56.015Z,101783.44
2023-05-24T13:04:26.034Z,101810.13
2023-05-24T13:06:53.124Z,101808.44
2023-05-24T13:09:22.390Z,101808.19
2023-05-24T13:11:49.442Z,101808.19
2023-05-24T13:14:17.165Z,101810.47
2023-05-24T13:16:44.673Z,101818.75
2023-05-24T13:19:12.379Z,101792.25
2023-05-24T13:21:39.880Z,101817.63
2023-05-24T13:24:07.608Z,101807.69
2023-05-24T13:26:37.405Z,101821.19
2023-05-24T13:31:37.859Z,101814.38
2023-05-24T13:34:05.925Z,101787.31
2023-05-24T13:36:33.543Z,101817.28
2023-05-24T13:41:31.579Z,101811.84
2023-05-24T13:43:58.634Z,101799.06
2023-05-24T13:46:25.689Z,101798.91
2023-05-24T13:48:52.651Z,101800.91
2023-05-24T13:51:19.941Z,101800.94
2023-05-24T13:53:48.050Z,101788.22
2023-05-24T13:56:16.243Z,101788.38
2023-05-24T13:58:43.247Z,101801.31
2023-05-24T14:01:10.702Z,101800.38
2023-05-24T14:03:39.650Z,101798.13
2023-05-24T14:06:07.961Z,101807.88
2023-05-24T14:08:35.543Z,101794.41
2023-05-24T14:11:02.507Z,101800.47
2023-05-24T14:15:59.423Z,101783.84
2023-05-24T14:18:26.736Z,101789.38
2023-05-24T14:20:53.782Z,101796.50
2023-05-24T14:23:20.884Z,101789.00
2023-05-24T14:25:47.937Z,101802.94
2023-05-24T14:28:14.942Z,101799.34
2023-05-24T14:30:42.151Z,101797.25
2023-05-24T14:33:11.432Z,101801.97
2023-05-24T14:35:39.728Z,101797.25
2023-05-24T14:38:09.376Z,101802.78
2023-05-24T14:40:39.062Z,101801.41
2023-05-24T14:43:07.344Z,101802.91
2023-05-24T14:45:34.304Z,101800.56
2023-05-24T14:48:02.544Z,101782.53
2023-05-24T14:50:29.929Z,101806.72
2023-05-24T14:52:56.988Z,101804.41
2023-05-24T14:55:23.972Z,101780.88
2023-05-24T14:57:51.720Z,101818.63
2023-05-24T15:00:22.191Z,101824.03
2023-05-24T15:02:50.258Z,101823.25
2023-05-24T15:05:17.232Z,101823.47
2023-05-24T15:07:44.203Z,101822.97
2023-05-24T15:10:11.893Z,101827.91
2023-05-24T15:12:38.910Z,101823.31
2023-05-24T15:15:07.904Z,101824.25
2023-05-24T15:17:35.025Z,101795.66
2023-05-24T15:20:02.723Z,101802.47
2023-05-24T15:22:29.791Z,101797.34
2023-05-24T15:24:56.958Z,101828.84
2023-05-24T15:27:23.904Z,101821.38
2023-05-24T15:29:53.941Z,101824.47
2023-05-24T15:32:21.081Z,101825.75
2023-05-24T15:34:50.125Z,101817.13
2023-05-24T15:37:21.778Z,101811.09
2023-05-24T15:39:49.517Z,101812.56
2023-05-24T15:42:16.575Z,101809.75
2023-05-24T15:44:43.862Z,101818.63
2023-05-24T15:47:10.833Z,101814.94
2023-05-24T15:49:37.821Z,101811.59
2023-05-24T15:52:05.481Z,101810.22
2023-05-24T15:54:32.899Z,101815.66
2023-05-24T15:57:03.049Z,101811.34
2023-05-24T15:59:30.113Z,101802.69
2023-05-24T16:01:57.090Z,101810.72
2023-05-24T16:04:24.093Z,101816.16
2023-05-24T16:06:51.066Z,101803.44
2023-05-24T16:09:18.086Z,101821.22
2023-05-24T16:11:45.210Z,101819.25
2023-05-24T16:14:12.251Z,101815.66
2023-05-24T16:16:39.294Z,101817.91
2023-05-24T16:19:06.297Z,101813.44
2023-05-24T16:21:33.382Z,101788.00
2023-05-24T16:24:01.895Z,101813.44
2023-05-24T16:26:30.830Z,101784.56
2023-05-24T16:28:58.952Z,101802.22
2023-05-24T16:31:26.163Z,101806.66
2023-05-24T16:33:53.194Z,101778.97
2023-05-24T16:36:21.259Z,101802.44
2023-05-24T16:38:48.198Z,101797.00
2023-05-24T16:41:15.165Z,101799.97
2023-05-24T16:43:42.190Z,101796.63
2023-05-24T16:46:09.155Z,101795.16
2023-05-24T16:48:36.122Z,101806.19
2023-05-24T16:51:03.446Z,101792.47
2023-05-24T16:53:30.530Z,101790.69
2023-05-24T16:55:58.024Z,101792.84
2023-05-24T16:58:30.847Z,101801.34
2023-05-24T17:00:58.559Z,101799.84
2023-05-24T17:03:29.893Z,101802.47
2023-05-24T17:06:03.334Z,101796.41
2023-05-24T17:08:38.144Z,101795.41
2023-05-24T17:11:06.370Z,101792.94
2023-05-24T17:13:34.131Z,101792.09
2023-05-24T17:16:02.975Z,101801.59
2023-05-24T17:18:30.042Z,101810.84
2023-05-24T17:21:03.539Z,101806.38
2023-05-24T17:23:32.171Z,101808.88
2023-05-24T17:26:00.786Z,101801.72
2023-05-24T17:28:28.305Z,101808.88
2023-05-24T17:31:00.431Z,101796.66
2023-05-24T17:33:30.051Z,101801.59
2023-05-24T17:35:57.584Z,101791.34
2023-05-24T17:38:25.413Z,101798.38
2023-05-24T17:40:59.691Z,101799.25
2023-05-24T17:43:32.729Z,101802.56
2023-05-24T17:46:06.320Z,101800.63
2023-05-24T17:48:38.708Z,101804.31
2023-05-24T17:51:10.394Z,101803.31
2023-05-24T17:53:38.456Z,101813.31
2023-05-24T17:56:07.468Z,101818.59
2023-05-24T17:58:37.632Z,101821.78
2023-05-24T18:01:06.860Z,101821.53
2023-05-24T18:03:36.498Z,101824.72
2023-05-24T18:06:07.771Z,101823.75
2023-05-24T18:08:43.115Z,101820.19
2023-05-24T18:11:12.514Z,101822.91
2023-05-24T18:13:41.839Z,101821.44
2023-05-24T18:16:10.719Z,101829.22
2023-05-24T18:18:38.038Z,101834.78
2023-05-24T18:21:05.653Z,101828.47
2023-05-24T18:23:37.257Z,101830.78
2023-05-24T18:26:09.162Z,101828.28
2023-05-24T18:28:37.474Z,101832.09
2023-05-24T18:31:08.467Z,101816.69
2023-05-24T18:33:35.874Z,101837.03
2023-05-24T18:36:04.370Z,101836.50
2023-05-24T18:38:33.918Z,101842.81
2023-05-24T18:41:03.528Z,101834.31
2023-05-24T18:43:32.556Z,101841.22
2023-05-24T18:45:59.548Z,101846.78
2023-05-24T18:48:26.465Z,101846.78
2023-05-24T18:50:54.484Z,101845.56
2023-05-24T18:53:21.603Z,101843.59
2023-05-24T18:55:48.562Z,101847.53
2023-05-24T18:58:15.652Z,101819.22
2023-05-24T19:00:42.903Z,101850.94
2023-05-24T19:03:12.090Z,101851.78
2023-05-24T19:05:42.563Z,101845.88
2023-05-24T19:08:10.828Z,101854.94
2023-05-24T19:10:37.837Z,101847.38
2023-05-24T19:13:06.133Z,101830.66
2023-05-24T19:15:36.483Z,101862.84
2023-05-24T19:18:03.670Z,101840.44
2023-05-24T19:20:30.862Z,101854.78
2023-05-24T19:22:57.967Z,101850.06
2023-05-24T19:25:24.930Z,101871.06
2023-05-24T19:30:21.833Z,101876.50
2023-05-24T19:32:48.808Z,101876.03
2023-05-24T19:35:15.863Z,101879.81
2023-05-24T19:37:42.854Z,101875.84
2023-05-24T19:40:11.149Z,101882.09
2023-05-24T19:42:38.090Z,101872.25
2023-05-24T19:45:05.905Z,101874.44
2023-05-24T19:47:32.872Z,101891.63
2023-05-24T19:49:59.828Z,101895.09
2023-05-24T19:52:26.793Z,101898.53
2023-05-24T19:54:54.013Z,101893.38
2023-05-24T19:57:20.968Z,101905.28
2023-05-24T19:59:48.416Z,101900.41
2023-05-24T20:02:15.399Z,101898.13
2023-05-24T20:04:43.746Z,101906.66
2023-05-24T20:07:11.434Z,101909.69
2023-05-24T20:09:38.503Z,101907.72
2023-05-24T20:12:06.227Z,101901.06
2023-05-24T20:14:33.247Z,101922.72
2023-05-24T20:17:01.180Z,101924.56
2023-05-24T20:19:28.232Z,101927.94
2023-05-24T20:21:55.298Z,101939.53
2023-05-24T20:24:22.612Z,101931.28
2023-05-24T20:26:49.637Z,101910.25
2023-05-24T20:29:16.651Z,101930.72
2023-05-24T20:31:43.761Z,101936.66
2023-05-24T20:34:10.854Z,101943.69
2023-05-24T20:36:37.863Z,101929.84
2023-05-24T20:39:04.947Z,101940.47
2023-05-24T20:41:31.951Z,101939.88
2023-05-24T20:43:58.916Z,101951.91
2023-05-24T20:46:26.266Z,101957.19
2023-05-24T20:48:53.845Z,101951.78
2023-05-24T20:51:22.978Z,101941.25
2023-05-24T20:53:52.939Z,101953.97
2023-05-24T20:56:21.319Z,101954.63
2023-05-24T20:58:52.552Z,101954.50
2023-05-24T21:01:20.785Z,101959.38
2023-05-24T21:03:47.772Z,101934.66
2023-05-24T21:06:14.774Z,101948.41
2023-05-24T21:08:43.321Z,101958.16
2023-05-24T21:11:10.591Z,101962.34
2023-05-24T21:13:37.681Z,101954.09
2023-05-24T21:16:04.983Z,101955.28
2023-05-24T21:18:33.350Z,101962.75
2023-05-24T21:21:00.630Z,101953.41
2023-05-24T21:23:27.599Z,101960.97
2023-05-24T21:25:54.587Z,101969.25
2023-05-24T21:28:21.596Z,101967.63
2023-05-24T21:30:48.768Z,101984.03
2023-05-24T21:33:16.553Z,101968.75
2023-05-24T21:35:43.769Z,101989.19
2023-05-24T21:38:11.005Z,101972.91
2023-05-24T21:40:38.045Z,101950.94
2023-05-24T21:43:05.230Z,101971.47
2023-05-24T21:45:32.275Z,101975.72
2023-05-24T21:47:59.293Z,101982.66
2023-05-24T21:50:26.362Z,101986.06
2023-05-24T21:52:53.346Z,101957.63
2023-05-24T21:55:20.754Z,101989.31
2023-05-24T21:57:47.752Z,101982.00
2023-05-24T22:00:16.697Z,101989.50
2023-05-24T22:02:43.890Z,101983.31
2023-05-24T22:05:11.192Z,102010.41
2023-05-24T22:07:38.258Z,101990.78
2023-05-24T22:10:07.277Z,102010.81
2023-05-24T22:12:34.966Z,102018.63
2023-05-24T22:15:02.450Z,101993.53
2023-05-24T22:17:32.719Z,101983.72
2023-05-24T22:20:02.314Z,102017.38
2023-05-24T22:22:29.771Z,102028.34
2023-05-24T22:24:56.837Z,102026.53
2023-05-24T22:27:24.042Z,102021.31
2023-05-24T22:29:51.075Z,102003.25
2023-05-24T22:32:18.204Z,102018.59
2023-05-24T22:34:45.184Z,102001.91
2023-05-24T22:37:12.169Z,102010.13
2023-05-24T22:39:39.509Z,101993.31
2023-05-24T22:42:06.447Z,102021.88
2023-05-24T22:44:33.426Z,102015.41
2023-05-24T22:47:01.918Z,102008.38
2023-05-24T22:49:29.602Z,102006.47
2023-05-24T22:51:56.779Z,102014.72
2023-05-24T22:54:23.720Z,102024.06
2023-05-24T22:56:50.916Z,102006.25
2023-05-24T22:59:17.842Z,102023.09
2023-05-24T23:01:44.916Z,102037.38
2023-05-24T23:04:20.976Z,102020.25
2023-05-24T23:06:55.006Z,102023.38
2023-05-24T23:09:29.252Z,102012.00
2023-05-24T23:11:58.696Z,102017.97
2023-05-24T23:14:25.913Z,102041.00
2023-05-24T23:16:52.894Z,102047.84
2023-05-24T23:19:22.094Z,102034.44
2023-05-24T23:21:52.204Z,102031.81
2023-05-24T23:24:19.488Z,102042.31
2023-05-24T23:26:46.482Z,102035.88
2023-05-24T23:29:13.583Z,102043.69
2023-05-24T23:31:40.714Z,102036.66
2023-05-24T23:34:07.736Z,102036.56
2023-05-24T23:36:34.669Z,102029.00
2023-05-24T23:39:01.645Z,102034.72
2023-05-24T23:41:28.597Z,102035.19
2023-05-24T23:43:55.811Z,102028.44
2023-05-24T23:46:22.784Z,102027.75
2023-05-24T23:48:49.816Z,102039.78
2023-05-24T23:51:16.845Z,102029.91
2023-05-24T23:53:43.848Z,102036.56
2023-05-24T23:56:11.256Z,102024.72
2023-05-24T23:58:38.224Z,102034.38
